Time;durP1;ratioP1;P1;durP2;ratioP2;P2;SDS_P1;SDS_P2;PMS_P1;PMS_P2;Temp;Humidity;BMP_temperature;BMP_pressure;BME280_temperature;BME280_humidity;BME280_pressure;Samples;Min_cycle;Max_cycle;Signal;HPM_P1;HPM_P2
2022/05/23 00:01:37;;;;;;;8.52;2.03;;;;;;;;;;5014328;28;93286;-70
2022/05/23 00:04:03;;;;;;;5.72;1.70;;;;;;;;;;5015530;28;94401;-71
2022/05/23 00:06:29;;;;;;;6.85;2.00;;;;;;;;;;5013695;28;92454;-70
2022/05/23 00:08:56;;;;;;;7.60;2.22;;;;;;;;;;5015089;28;93494;-70
2022/05/23 00:11:23;;;;;;;6.97;2.00;;;;;;;;;;5013199;28;93471;-70
2022/05/23 00:13:49;;;;;;;6.20;1.63;;;;;;;;;;4996221;28;93146;-70
2022/05/23 00:16:17;;;;;;;7.80;2.03;;;;;;;;;;5012922;28;93892;-71
2022/05/23 00:18:44;;;;;;;12.02;2.33;;;;;;;;;;5019055;28;93430;-70
2022/05/23 00:21:10;;;;;;;5.45;2.40;;;;;;;;;;5012467;28;94905;-71
2022/05/23 00:23:37;;;;;;;6.82;1.67;;;;;;;;;;4995816;28;93500;-71
2022/05/23 00:26:03;;;;;;;5.97;1.90;;;;;;;;;;5014910;28;92455;-71
2022/05/23 00:28:29;;;;;;;11.88;2.17;;;;;;;;;;5016016;28;92965;-71
2022/05/23 00:30:55;;;;;;;9.45;2.35;;;;;;;;;;5014323;28;93439;-71
2022/05/23 00:36:07;;;;;;;7.25;2.63;;;;;;;;;;5012336;28;93085;-70
2022/05/23 00:38:33;;;;;;;10.38;2.67;;;;;;;;;;5001422;28;92536;-71
2022/05/23 00:43:50;;;;;;;10.50;2.78;;;;;;;;;;5015444;28;93241;-72
2022/05/23 00:46:16;;;;;;;6.25;1.98;;;;;;;;;;5012214;28;94890;-70
2022/05/23 00:48:42;;;;;;;7.85;2.25;;;;;;;;;;5015885;28;96687;-71
2022/05/23 00:51:15;;;;;;;8.35;2.75;;;;;;;;;;4996011;28;94123;-71
2022/05/23 00:53:46;;;;;;;6.93;2.15;;;;;;;;;;5011427;28;93368;-71
2022/05/23 00:56:14;;;;;;;6.13;2.10;;;;;;;;;;4995780;28;93240;-71
2022/05/23 00:58:45;;;;;;;21.90;2.78;;;;;;;;;;5014112;28;93604;-70
2022/05/23 01:01:12;;;;;;;10.73;2.35;;;;;;;;;;5016632;28;93173;-71
2022/05/23 01:03:39;;;;;;;11.32;2.42;;;;;;;;;;5014243;28;93235;-70
2022/05/23 01:06:06;;;;;;;8.20;2.33;;;;;;;;;;5013611;28;94334;-70
2022/05/23 01:08:34;;;;;;;6.93;2.10;;;;;;;;;;5016267;28;93274;-71
2022/05/23 01:11:01;;;;;;;8.10;2.15;;;;;;;;;;4991738;28;96104;-71
2022/05/23 01:13:27;;;;;;;4.72;2.13;;;;;;;;;;5011261;28;92640;-70
2022/05/23 01:15:53;;;;;;;11.10;2.35;;;;;;;;;;4995983;28;92666;-71
2022/05/23 01:18:19;;;;;;;7.95;2.42;;;;;;;;;;5011591;28;94042;-70
2022/05/23 01:20:49;;;;;;;8.23;2.55;;;;;;;;;;4996993;28;92582;-70
2022/05/23 01:23:34;;;;;;;6.87;2.40;;;;;;;;;;5014490;28;94166;-70
2022/05/23 01:26:00;;;;;;;8.13;2.30;;;;;;;;;;5013858;28;92343;-70
2022/05/23 01:28:31;;;;;;;10.15;2.78;;;;;;;;;;5016696;28;94058;-71
2022/05/23 01:30:57;;;;;;;9.55;2.30;;;;;;;;;;5014331;28;92547;-70
2022/05/23 01:33:24;;;;;;;10.65;2.20;;;;;;;;;;5014146;28;93623;-70
2022/05/23 01:35:50;;;;;;;4.93;2.22;;;;;;;;;;4991916;28;96062;-71
2022/05/23 01:38:16;;;;;;;7.13;2.50;;;;;;;;;;5012044;28;93771;-71
2022/05/23 01:40:42;;;;;;;9.98;2.38;;;;;;;;;;5011066;28;92517;-70
2022/05/23 01:43:09;;;;;;;8.35;2.33;;;;;;;;;;5017654;28;92982;-71
2022/05/23 01:45:39;;;;;;;6.65;2.42;;;;;;;;;;5016435;28;93413;-71
2022/05/23 01:48:06;;;;;;;10.48;2.92;;;;;;;;;;4997494;28;93873;-70
2022/05/23 01:50:32;;;;;;;8.63;2.30;;;;;;;;;;4994568;28;93456;-70
2022/05/23 01:52:59;;;;;;;7.53;2.40;;;;;;;;;;5013488;28;91896;-70
2022/05/23 01:55:25;;;;;;;6.90;2.33;;;;;;;;;;4994926;28;92528;-71
2022/05/23 01:57:51;;;;;;;5.13;2.10;;;;;;;;;;5013674;28;93305;-70
2022/05/23 02:03:04;;;;;;;9.05;2.42;;;;;;;;;;5012766;28;95841;-70
2022/05/23 02:05:30;;;;;;;7.72;2.53;;;;;;;;;;4994429;28;93480;-70
2022/05/23 02:07:57;;;;;;;5.07;2.15;;;;;;;;;;5017436;28;92443;-70
2022/05/23 02:10:23;;;;;;;5.35;2.13;;;;;;;;;;5011603;28;93242;-69
2022/05/23 02:12:49;;;;;;;5.30;2.35;;;;;;;;;;5005251;28;92443;-70
2022/05/23 02:15:17;;;;;;;5.72;2.47;;;;;;;;;;4993576;28;93028;-71
2022/05/23 02:17:43;;;;;;;9.15;2.75;;;;;;;;;;5014570;28;92609;-70
2022/05/23 02:20:10;;;;;;;6.63;2.53;;;;;;;;;;5011408;28;93029;-70
2022/05/23 02:22:37;;;;;;;6.05;2.22;;;;;;;;;;5012976;28;93594;-70
2022/05/23 02:25:04;;;;;;;7.70;2.75;;;;;;;;;;5005612;28;95913;-71
2022/05/23 02:27:30;;;;;;;6.90;2.80;;;;;;;;;;5013869;28;92508;-70
2022/05/23 02:29:57;;;;;;;7.30;2.80;;;;;;;;;;5016463;28;93114;-70
2022/05/23 02:32:24;;;;;;;6.95;2.90;;;;;;;;;;5012505;28;92467;-70
2022/05/23 02:34:50;;;;;;;8.25;2.80;;;;;;;;;;5013246;28;93091;-71
2022/05/23 02:37:17;;;;;;;7.97;2.72;;;;;;;;;;5012615;28;95193;-70
2022/05/23 02:39:43;;;;;;;8.52;2.72;;;;;;;;;;5012052;28;92417;-71
2022/05/23 02:42:13;;;;;;;;;;;;;;;;;;5011509;28;93120;-71
2022/05/23 02:44:39;;;;;;;8.48;2.80;;;;;;;;;;5011582;28;124011;-70
2022/05/23 02:47:06;;;;;;;8.63;2.70;;;;;;;;;;5013400;28;92527;-70
2022/05/23 02:49:32;;;;;;;7.07;3.00;;;;;;;;;;5014718;28;94850;-70
2022/05/23 02:51:58;;;;;;;13.13;3.20;;;;;;;;;;4994222;28;92679;-70
2022/05/23 02:54:25;;;;;;;9.93;3.08;;;;;;;;;;5013157;28;94341;-71
2022/05/23 02:56:51;;;;;;;8.98;2.88;;;;;;;;;;5012564;28;94502;-70
2022/05/23 02:59:17;;;;;;;8.15;2.50;;;;;;;;;;5010385;28;92555;-70
2022/05/23 03:04:28;;;;;;;6.95;2.70;;;;;;;;;;5013773;28;94268;-70
2022/05/23 03:06:55;;;;;;;6.28;3.00;;;;;;;;;;5010437;28;91805;-70
2022/05/23 03:09:21;;;;;;;8.93;3.05;;;;;;;;;;5012523;28;92514;-70
2022/05/23 03:11:48;;;;;;;7.93;3.10;;;;;;;;;;4997699;28;93277;-70
2022/05/23 03:14:14;;;;;;;14.80;2.95;;;;;;;;;;5011745;28;94952;-71
2022/05/23 03:16:41;;;;;;;12.50;3.05;;;;;;;;;;5011866;28;93994;-70
2022/05/23 03:19:07;;;;;;;6.13;2.78;;;;;;;;;;5013267;28;92446;-71
2022/05/23 03:27:03;;;;;;;8.30;3.00;;;;;;;;;;5005371;28;92687;-70
2022/05/23 03:29:30;;;;;;;9.82;2.97;;;;;;;;;;5012643;28;94178;-70
2022/05/23 03:31:56;;;;;;;9.38;3.42;;;;;;;;;;5011810;28;92994;-71
2022/05/23 03:34:23;;;;;;;9.40;3.42;;;;;;;;;;4998599;28;92374;-71
2022/05/23 03:36:49;;;;;;;8.77;3.20;;;;;;;;;;5008730;28;93789;-70
2022/05/23 03:39:16;;;;;;;8.52;3.38;;;;;;;;;;5009602;28;95654;-71
2022/05/23 03:41:42;;;;;;;9.63;3.15;;;;;;;;;;5011232;28;95622;-72
2022/05/23 03:44:08;;;;;;;8.57;3.10;;;;;;;;;;5022612;28;93621;-71
2022/05/23 03:46:35;;;;;;;10.63;3.20;;;;;;;;;;5010626;28;94073;-71
2022/05/23 03:49:02;;;;;;;11.18;3.38;;;;;;;;;;5010806;28;93136;-70
2022/05/23 03:51:29;;;;;;;9.23;3.28;;;;;;;;;;4988282;28;93425;-70
2022/05/23 03:53:55;;;;;;;8.02;3.65;;;;;;;;;;5022317;28;92566;-70
2022/05/23 03:56:21;;;;;;;10.68;3.75;;;;;;;;;;5026107;28;93151;-71
2022/05/23 03:58:47;;;;;;;9.98;3.47;;;;;;;;;;5026576;28;92522;-71
2022/05/23 04:01:16;;;;;;;11.20;3.63;;;;;;;;;;4996166;28;94589;-70
2022/05/23 04:03:42;;;;;;;12.15;3.42;;;;;;;;;;5011618;28;96788;-71
2022/05/23 04:06:09;;;;;;;9.27;3.50;;;;;;;;;;5011185;28;92467;-71
2022/05/23 04:08:35;;;;;;;10.55;3.22;;;;;;;;;;4993998;28;92958;-71
2022/05/23 04:11:02;;;;;;;8.13;3.15;;;;;;;;;;5012127;28;93671;-70
2022/05/23 04:13:29;;;;;;;7.50;3.28;;;;;;;;;;5014328;28;92491;-71
2022/05/23 04:15:56;;;;;;;7.57;3.47;;;;;;;;;;4999461;28;93290;-71
2022/05/23 04:18:22;;;;;;;10.93;3.90;;;;;;;;;;5014219;28;93382;-70
2022/05/23 04:20:49;;;;;;;11.43;3.97;;;;;;;;;;5009942;28;93613;-70
2022/05/23 04:23:15;;;;;;;8.85;3.75;;;;;;;;;;5015728;28;94952;-70
2022/05/23 04:25:43;;;;;;;13.05;3.67;;;;;;;;;;5015507;28;92444;-71
2022/05/23 04:28:09;;;;;;;11.75;3.80;;;;;;;;;;5008527;28;94842;-70
2022/05/23 04:30:36;;;;;;;14.23;4.05;;;;;;;;;;4992185;28;93778;-70
2022/05/23 04:35:51;;;;;;;11.90;3.47;;;;;;;;;;5010730;28;92879;-70
2022/05/23 04:38:18;;;;;;;18.30;4.13;;;;;;;;;;5014999;28;93715;-71
2022/05/23 04:40:44;;;;;;;11.18;3.70;;;;;;;;;;5018591;28;92838;-70
2022/05/23 04:43:10;;;;;;;8.27;3.60;;;;;;;;;;5004231;28;93515;-70
2022/05/23 04:45:37;;;;;;;7.32;3.35;;;;;;;;;;5010329;28;91711;-70
2022/05/23 04:50:48;;;;;;;8.32;3.88;;;;;;;;;;5014842;28;94413;-70
2022/05/23 04:53:15;;;;;;;10.32;3.42;;;;;;;;;;5007700;28;95148;-70
2022/05/23 04:55:43;;;;;;;8.95;3.60;;;;;;;;;;5014186;28;95405;-70
2022/05/23 04:58:12;;;;;;;8.02;3.40;;;;;;;;;;4996869;28;93528;-70
2022/05/23 05:00:39;;;;;;;10.18;3.83;;;;;;;;;;5017683;28;92585;-70
2022/05/23 05:03:13;;;;;;;9.15;3.40;;;;;;;;;;5014004;28;93776;-70
2022/05/23 05:05:39;;;;;;;14.27;3.90;;;;;;;;;;5014418;28;93434;-71
2022/05/23 05:08:06;;;;;;;10.07;3.55;;;;;;;;;;4997148;28;93741;-70
2022/05/23 05:10:32;;;;;;;11.20;4.50;;;;;;;;;;4997012;28;92485;-71
2022/05/23 05:12:58;;;;;;;6.65;3.58;;;;;;;;;;4996850;28;92579;-70
2022/05/23 05:15:26;;;;;;;5.53;3.30;;;;;;;;;;5012191;28;92894;-71
2022/05/23 05:17:52;;;;;;;12.27;3.80;;;;;;;;;;5010191;28;95901;-71
2022/05/23 05:20:19;;;;;;;13.25;4.63;;;;;;;;;;5012256;28;92651;-71
2022/05/23 05:22:45;;;;;;;5.65;3.50;;;;;;;;;;5016102;28;94019;-70
2022/05/23 05:25:12;;;;;;;8.60;4.28;;;;;;;;;;5011876;28;93193;-70
2022/05/23 05:27:39;;;;;;;6.22;3.70;;;;;;;;;;5015728;28;93209;-71
2022/05/23 05:30:06;;;;;;;12.57;4.88;;;;;;;;;;4994972;28;93430;-71
2022/05/23 05:32:39;;;;;;;10.18;4.40;;;;;;;;;;5015448;28;92474;-70
2022/05/23 05:35:09;;;;;;;7.00;3.92;;;;;;;;;;5014045;28;94308;-71
2022/05/23 05:37:43;;;;;;;13.13;4.70;;;;;;;;;;4995986;28;93628;-70
2022/05/23 05:40:10;;;;;;;12.18;4.60;;;;;;;;;;4997034;28;92601;-70
2022/05/23 05:42:39;;;;;;;13.20;4.78;;;;;;;;;;4993398;28;94988;-70
2022/05/23 05:45:11;;;;;;;14.68;4.80;;;;;;;;;;5015259;28;93723;-70
2022/05/23 05:47:39;;;;;;;9.50;4.68;;;;;;;;;;5009600;28;93753;-71
2022/05/23 05:50:07;;;;;;;10.60;4.93;;;;;;;;;;5008770;28;93243;-70
2022/05/23 05:52:34;;;;;;;13.73;5.07;;;;;;;;;;4994486;28;92528;-70
2022/05/23 05:55:01;;;;;;;13.88;5.22;;;;;;;;;;5012701;28;93084;-70
2022/05/23 05:57:27;;;;;;;8.52;4.68;;;;;;;;;;5014410;28;93644;-70
2022/05/23 05:59:54;;;;;;;22.13;5.65;;;;;;;;;;5013887;28;91745;-70
2022/05/23 06:02:20;;;;;;;15.18;4.95;;;;;;;;;;5012705;28;92590;-70
2022/05/23 06:04:47;;;;;;;16.38;4.80;;;;;;;;;;5013749;28;93344;-70
2022/05/23 06:12:53;;;;;;;9.20;4.63;;;;;;;;;;5014630;28;92680;-70
2022/05/23 06:15:20;;;;;;;13.50;5.00;;;;;;;;;;5011207;28;93182;-73
2022/05/23 06:17:46;;;;;;;11.38;5.20;;;;;;;;;;5014957;28;93223;-71
2022/05/23 06:20:13;;;;;;;19.73;5.75;;;;;;;;;;4991342;28;92508;-71
2022/05/23 06:22:39;;;;;;;11.27;5.47;;;;;;;;;;4982625;28;93030;-71
2022/05/23 06:25:06;;;;;;;14.95;5.32;;;;;;;;;;5010713;28;93083;-73
2022/05/23 06:27:32;;;;;;;18.35;5.82;;;;;;;;;;5005297;28;92935;-71
2022/05/23 06:29:59;;;;;;;8.77;5.03;;;;;;;;;;5016872;28;95585;-71
2022/05/23 06:32:25;;;;;;;12.90;5.45;;;;;;;;;;5013183;28;94846;-70
2022/05/23 06:34:51;;;;;;;12.43;5.30;;;;;;;;;;5011054;28;95384;-71
2022/05/23 06:37:18;;;;;;;12.05;5.78;;;;;;;;;;5007985;28;93967;-71
2022/05/23 06:39:44;;;;;;;11.90;5.43;;;;;;;;;;4980893;28;92553;-71
2022/05/23 06:42:10;;;;;;;15.50;6.18;;;;;;;;;;5022215;28;92449;-70
2022/05/23 06:44:37;;;;;;;13.63;6.07;;;;;;;;;;5004248;28;93442;-70
2022/05/23 06:47:03;;;;;;;12.95;5.32;;;;;;;;;;4995979;28;92682;-70
2022/05/23 06:49:29;;;;;;;21.45;6.43;;;;;;;;;;5016717;28;93330;-70
2022/05/23 06:51:56;;;;;;;17.00;5.65;;;;;;;;;;5011932;28;92453;-72
2022/05/23 06:54:22;;;;;;;10.80;5.93;;;;;;;;;;5013591;28;93117;-70
2022/05/23 06:56:49;;;;;;;15.65;5.90;;;;;;;;;;5010915;28;95832;-70
2022/05/23 06:59:16;;;;;;;12.77;5.75;;;;;;;;;;5002364;28;93217;-73
2022/05/23 07:01:43;;;;;;;19.05;6.80;;;;;;;;;;4993619;28;94299;-72
2022/05/23 07:04:09;;;;;;;16.05;6.10;;;;;;;;;;5012459;28;93684;-71
2022/05/23 07:14:39;;;;;;;12.05;5.65;;;;;;;;;;5007529;28;93246;-70
2022/05/23 07:17:05;;;;;;;12.38;6.13;;;;;;;;;;5010405;28;93279;-70
2022/05/23 07:19:34;;;;;;;17.23;6.38;;;;;;;;;;4993413;28;92529;-70
2022/05/23 07:22:02;;;;;;;11.20;6.28;;;;;;;;;;5011061;28;94880;-70
2022/05/23 07:24:30;;;;;;;19.48;6.60;;;;;;;;;;5012173;28;93602;-69
2022/05/23 07:26:57;;;;;;;15.27;6.55;;;;;;;;;;5008460;28;94287;-69
2022/05/23 07:29:24;;;;;;;16.30;6.50;;;;;;;;;;5013298;28;93007;-69
2022/05/23 07:31:51;;;;;;;14.68;6.05;;;;;;;;;;4995315;28;93173;-69
2022/05/23 07:34:17;;;;;;;12.05;5.90;;;;;;;;;;4993817;28;92696;-70
2022/05/23 07:36:44;;;;;;;12.80;5.57;;;;;;;;;;4978768;28;93804;-70
2022/05/23 07:39:11;;;;;;;19.67;6.65;;;;;;;;;;5008018;28;93486;-69
2022/05/23 07:41:39;;;;;;;18.23;5.97;;;;;;;;;;5013490;28;92782;-70
2022/05/23 07:44:08;;;;;;;11.05;5.40;;;;;;;;;;5027352;28;93858;-69
2022/05/23 07:46:34;;;;;;;16.40;5.47;;;;;;;;;;5002269;28;94837;-70
2022/05/23 07:49:01;;;;;;;9.63;5.47;;;;;;;;;;5016464;28;95701;-69
2022/05/23 07:51:32;;;;;;;14.30;5.38;;;;;;;;;;5017086;28;94848;-69
2022/05/23 08:02:15;;;;;;;10.57;5.82;;;;;;;;;;5016929;28;93177;-69
2022/05/23 08:04:42;;;;;;;8.65;5.43;;;;;;;;;;5017022;28;93079;-69
2022/05/23 08:07:09;;;;;;;11.05;5.70;;;;;;;;;;5016813;28;92411;-69
2022/05/23 08:09:36;;;;;;;14.77;5.40;;;;;;;;;;5017000;28;93066;-69
2022/05/23 08:12:04;;;;;;;11.63;5.20;;;;;;;;;;5014992;28;96047;-69
2022/05/23 08:14:30;;;;;;;12.20;5.22;;;;;;;;;;4999146;28;92570;-69
2022/05/23 08:16:57;;;;;;;10.32;5.25;;;;;;;;;;5016666;28;93590;-69
2022/05/23 08:19:23;;;;;;;11.13;5.80;;;;;;;;;;5019851;28;93976;-69
2022/05/23 08:21:53;;;;;;;9.18;5.65;;;;;;;;;;5016676;28;93208;-69
2022/05/23 08:24:20;;;;;;;;;;;;;;;;;;5017149;28;93203;-70
2022/05/23 08:26:46;;;;;;;15.05;6.15;;;;;;;;;;5017860;28;118475;-69
2022/05/23 08:29:13;;;;;;;17.48;6.28;;;;;;;;;;5017447;28;91778;-70
2022/05/23 08:31:45;;;;;;;10.70;6.03;;;;;;;;;;4999839;28;94691;-69
2022/05/23 08:34:11;;;;;;;15.55;6.75;;;;;;;;;;4999065;28;92499;-70
2022/05/23 08:36:38;;;;;;;15.27;6.05;;;;;;;;;;4997324;28;94870;-70
2022/05/23 08:39:04;;;;;;;10.43;5.90;;;;;;;;;;4998669;28;93447;-69
2022/05/23 08:41:41;;;;;;;10.85;6.00;;;;;;;;;;5002021;28;92955;-69
2022/05/23 08:44:10;;;;;;;13.45;5.68;;;;;;;;;;5030500;28;94866;-69
2022/05/23 08:46:40;;;;;;;12.05;6.25;;;;;;;;;;5022566;28;92448;-69
2022/05/23 08:49:14;;;;;;;14.88;5.97;;;;;;;;;;5016562;28;93422;-69
2022/05/23 08:51:57;;;;;;;16.08;6.07;;;;;;;;;;4998552;28;95006;-70
2022/05/23 08:54:27;;;;;;;13.10;5.60;;;;;;;;;;5017120;28;91650;-69
2022/05/23 08:56:56;;;;;;;15.43;6.15;;;;;;;;;;5015538;28;92472;-69
2022/05/23 08:59:25;;;;;;;13.88;5.50;;;;;;;;;;5016073;28;93397;-69
2022/05/23 09:01:54;;;;;;;13.45;5.60;;;;;;;;;;5017724;28;94858;-69
2022/05/23 09:04:27;;;;;;;16.47;5.67;;;;;;;;;;5016328;28;93070;-70
2022/05/23 09:06:53;;;;;;;14.23;5.35;;;;;;;;;;5015918;28;92605;-69
2022/05/23 09:09:21;;;;;;;15.50;6.05;;;;;;;;;;5015989;28;93470;-70
2022/05/23 09:11:48;;;;;;;16.25;6.13;;;;;;;;;;5015900;28;93367;-69
2022/05/23 09:14:18;;;;;;;11.60;5.38;;;;;;;;;;5015981;28;94206;-70
2022/05/23 09:16:46;;;;;;;17.90;5.60;;;;;;;;;;5015486;28;92979;-70
2022/05/23 09:19:21;;;;;;;12.63;5.15;;;;;;;;;;5016258;28;92498;-69
2022/05/23 09:25:08;;;;;;;9.63;5.45;;;;;;;;;;5018830;28;93513;-69
2022/05/23 09:27:36;;;;;;;11.52;5.50;;;;;;;;;;4936227;28;95032;-70
2022/05/23 09:30:04;;;;;;;13.60;6.22;;;;;;;;;;4954023;28;95618;-69
2022/05/23 09:32:49;;;;;;;20.85;6.55;;;;;;;;;;4953772;28;93617;-69
2022/05/23 09:35:25;;;;;;;22.70;7.45;;;;;;;;;;4953841;28;92458;-69
2022/05/23 09:38:04;;;;;;;11.55;6.05;;;;;;;;;;4954270;28;93004;-69
2022/05/23 09:40:30;;;;;;;8.73;5.80;;;;;;;;;;4954218;28;93691;-70
2022/05/23 09:49:05;;;;;;;9.70;5.90;;;;;;;;;;4956975;28;93728;-70
2022/05/23 09:51:32;;;;;;;10.23;5.47;;;;;;;;;;4954012;28;93315;-70
2022/05/23 09:54:01;;;;;;;13.25;5.38;;;;;;;;;;4952184;28;95886;-69
2022/05/23 09:56:36;;;;;;;15.95;5.15;;;;;;;;;;4953923;28;92960;-70
2022/05/23 09:59:06;;;;;;;11.02;4.68;;;;;;;;;;4953896;28;93408;-70
2022/05/23 10:01:33;;;;;;;18.08;5.35;;;;;;;;;;4975893;28;93922;-69
2022/05/23 10:04:00;;;;;;;10.45;5.25;;;;;;;;;;5015762;28;92394;-70
2022/05/23 10:06:38;;;;;;;16.00;5.72;;;;;;;;;;5015345;28;93468;-70
2022/05/23 10:09:06;;;;;;;14.38;4.40;;;;;;;;;;5014600;28;93545;-70
2022/05/23 10:11:34;;;;;;;9.63;5.40;;;;;;;;;;5012665;28;91818;-70
2022/05/23 10:14:03;;;;;;;9.52;5.88;;;;;;;;;;5013351;28;93623;-70
2022/05/23 10:16:31;;;;;;;12.65;6.70;;;;;;;;;;5011050;28;92429;-70
2022/05/23 10:19:03;;;;;;;14.20;5.97;;;;;;;;;;5013959;28;94780;-70
2022/05/23 10:21:35;;;;;;;17.85;6.18;;;;;;;;;;5002810;28;93475;-70
2022/05/23 10:24:04;;;;;;;15.48;6.68;;;;;;;;;;5016949;28;93138;-70
2022/05/23 10:26:33;;;;;;;15.07;5.95;;;;;;;;;;4987165;28;93246;-73
2022/05/23 10:29:03;;;;;;;15.95;6.40;;;;;;;;;;4986569;28;95138;-71
2022/05/23 10:31:35;;;;;;;13.30;6.78;;;;;;;;;;5010126;28;92767;-72
2022/05/23 10:34:13;;;;;;;12.65;6.72;;;;;;;;;;5033427;28;93161;-72
2022/05/23 10:36:42;;;;;;;14.50;6.75;;;;;;;;;;5006986;28;91881;-72
2022/05/23 10:42:15;;;;;;;13.55;7.50;;;;;;;;;;5007129;28;93288;-72
2022/05/23 10:44:41;;;;;;;24.52;8.63;;;;;;;;;;5013741;28;95704;-73
2022/05/23 10:47:19;;;;;;;13.95;8.35;;;;;;;;;;5013290;28;95568;-71
2022/05/23 10:49:53;;;;;;;24.55;9.48;;;;;;;;;;4998701;28;93544;-72
2022/05/23 10:52:25;;;;;;;22.65;9.30;;;;;;;;;;5010735;28;92560;-72
2022/05/23 10:54:51;;;;;;;17.60;8.45;;;;;;;;;;5012910;28;94011;-71
2022/05/23 10:57:17;;;;;;;13.93;8.23;;;;;;;;;;5009831;28;93361;-74
2022/05/23 10:59:53;;;;;;;22.85;9.98;;;;;;;;;;5008404;28;93450;-74
2022/05/23 11:02:31;;;;;;;20.67;9.15;;;;;;;;;;5011159;28;92545;-73
2022/05/23 11:05:04;;;;;;;17.35;8.52;;;;;;;;;;5012452;28;92550;-74
2022/05/23 11:07:49;;;;;;;16.35;9.43;;;;;;;;;;5012527;28;93386;-73
2022/05/23 11:10:22;;;;;;;25.75;9.60;;;;;;;;;;5011135;28;95833;-73
2022/05/23 11:13:18;;;;;;;26.67;9.40;;;;;;;;;;5009520;28;92450;-73
2022/05/23 11:15:57;;;;;;;19.55;8.02;;;;;;;;;;5012022;28;93176;-73
2022/05/23 11:18:34;;;;;;;17.43;8.30;;;;;;;;;;5013270;28;93535;-73
2022/05/23 11:21:03;;;;;;;17.67;8.18;;;;;;;;;;4987000;28;93589;-72
2022/05/23 11:23:33;;;;;;;21.50;8.30;;;;;;;;;;4992890;28;93505;-73
2022/05/23 11:26:06;;;;;;;16.30;7.88;;;;;;;;;;5012465;28;92456;-74
2022/05/23 11:34:24;;;;;;;15.77;7.55;;;;;;;;;;5011603;28;92517;-73
2022/05/23 11:37:06;;;;;;;21.35;7.32;;;;;;;;;;5011828;28;95998;-73
2022/05/23 11:39:41;;;;;;;14.30;8.43;;;;;;;;;;5017341;28;93320;-73
2022/05/23 11:42:27;;;;;;;19.05;7.63;;;;;;;;;;5001941;28;92490;-72
2022/05/23 11:44:55;;;;;;;12.68;7.93;;;;;;;;;;5007895;28;93446;-72
2022/05/23 11:47:26;;;;;;;22.55;8.23;;;;;;;;;;5006510;28;92537;-72
2022/05/23 11:49:52;;;;;;;;;;;;;;;;;;5016793;28;92600;-72
2022/05/23 11:52:39;;;;;;;14.98;6.97;;;;;;;;;;5016203;28;124021;-71
2022/05/23 11:55:06;;;;;;;15.82;7.28;;;;;;;;;;5016599;28;91741;-71
2022/05/23 11:57:37;;;;;;;14.70;7.35;;;;;;;;;;4998763;28;92499;-71
2022/05/23 12:00:07;;;;;;;18.98;7.55;;;;;;;;;;4997682;28;93214;-71
2022/05/23 12:02:37;;;;;;;15.98;7.43;;;;;;;;;;5011391;28;94997;-72
2022/05/23 12:05:07;;;;;;;15.35;6.85;;;;;;;;;;4995241;28;96698;-71
2022/05/23 12:07:43;;;;;;;15.20;5.70;;;;;;;;;;4997261;28;92406;-71
2022/05/23 12:10:25;;;;;;;13.73;6.00;;;;;;;;;;5004099;28;93843;-71
2022/05/23 12:12:53;;;;;;;9.60;5.43;;;;;;;;;;5013385;28;93416;-71
2022/05/23 12:15:38;;;;;;;8.85;5.20;;;;;;;;;;4996888;28;92846;-72
2022/05/23 12:18:04;;;;;;;14.27;5.15;;;;;;;;;;5015268;28;93168;-71
2022/05/23 12:20:31;;;;;;;13.00;5.10;;;;;;;;;;4993202;28;93745;-73
2022/05/23 12:23:06;;;;;;;11.05;5.82;;;;;;;;;;5015010;28;92497;-71
2022/05/23 12:25:33;;;;;;;7.93;5.28;;;;;;;;;;5008144;28;92596;-72
2022/05/23 12:28:20;;;;;;;7.93;5.22;;;;;;;;;;5017135;28;95968;-71
2022/05/23 12:31:06;;;;;;;11.50;5.07;;;;;;;;;;4985950;28;95582;-71
2022/05/23 12:33:33;;;;;;;14.38;5.95;;;;;;;;;;5010833;28;93613;-70
2022/05/23 12:36:06;;;;;;;10.75;5.82;;;;;;;;;;5016491;28;92469;-71
2022/05/23 12:38:32;;;;;;;16.88;6.18;;;;;;;;;;4997227;28;92989;-71
2022/05/23 12:41:17;;;;;;;16.52;6.57;;;;;;;;;;4995066;28;95924;-72
2022/05/23 12:44:01;;;;;;;14.75;5.85;;;;;;;;;;5013129;28;93464;-72
2022/05/23 12:46:36;;;;;;;14.50;6.03;;;;;;;;;;5011763;28;93017;-73
2022/05/23 12:49:17;;;;;;;12.55;6.30;;;;;;;;;;5005995;28;93520;-71
2022/05/23 12:52:01;;;;;;;15.57;6.60;;;;;;;;;;5019224;28;92470;-71
2022/05/23 12:54:31;;;;;;;19.67;6.20;;;;;;;;;;5012998;28;96046;-71
2022/05/23 12:57:00;;;;;;;9.40;5.60;;;;;;;;;;5014967;28;92471;-71
2022/05/23 12:59:44;;;;;;;16.13;5.85;;;;;;;;;;4998612;28;92943;-71
2022/05/23 13:02:14;;;;;;;20.85;6.72;;;;;;;;;;5016313;28;93781;-72
2022/05/23 13:04:47;;;;;;;11.55;5.90;;;;;;;;;;5011540;28;94196;-71
2022/05/23 13:07:18;;;;;;;19.40;5.80;;;;;;;;;;5022402;28;93497;-71
2022/05/23 13:09:54;;;;;;;12.68;5.72;;;;;;;;;;4978206;28;93457;-71
2022/05/23 13:12:27;;;;;;;9.95;5.50;;;;;;;;;;5015688;28;92398;-72
2022/05/23 13:14:55;;;;;;;13.63;5.97;;;;;;;;;;4999355;28;93028;-70
2022/05/23 13:17:35;;;;;;;9.45;6.25;;;;;;;;;;4994579;28;92708;-71
2022/05/23 13:22:46;;;;;;;8.93;5.70;;;;;;;;;;5012052;28;93500;-71
2022/05/23 13:25:13;;;;;;;12.65;6.97;;;;;;;;;;5011096;28;92493;-71
2022/05/23 13:27:49;;;;;;;16.13;6.90;;;;;;;;;;5015498;28;93252;-71
2022/05/23 13:30:15;;;;;;;13.32;6.90;;;;;;;;;;5015324;28;93343;-72
2022/05/23 13:32:41;;;;;;;16.13;6.35;;;;;;;;;;4997423;28;92979;-72
2022/05/23 13:35:17;;;;;;;22.25;7.80;;;;;;;;;;5000442;28;93161;-72
2022/05/23 13:37:43;;;;;;;12.95;7.03;;;;;;;;;;5013577;28;91833;-72
2022/05/23 13:40:15;;;;;;;15.88;7.40;;;;;;;;;;5011500;28;92485;-72
2022/05/23 13:42:42;;;;;;;14.82;8.30;;;;;;;;;;5017330;28;93769;-71
2022/05/23 13:45:11;;;;;;;29.98;10.13;;;;;;;;;;5015535;27;95507;-71
2022/05/23 13:47:39;;;;;;;20.97;9.80;;;;;;;;;;5010382;28;95895;-71
2022/05/23 13:50:08;;;;;;;29.45;9.68;;;;;;;;;;4994888;28;93720;-71
2022/05/23 13:52:38;;;;;;;30.90;10.40;;;;;;;;;;5006352;28;92533;-70
2022/05/23 13:55:05;;;;;;;18.23;10.10;;;;;;;;;;5012757;28;94000;-70
2022/05/23 13:57:40;;;;;;;21.73;9.13;;;;;;;;;;5016228;28;93397;-69
2022/05/23 14:00:13;;;;;;;20.37;9.27;;;;;;;;;;5011493;28;93601;-70
2022/05/23 14:02:42;;;;;;;21.80;10.85;;;;;;;;;;5010962;28;92981;-69
2022/05/23 14:05:09;;;;;;;20.45;10.40;;;;;;;;;;5006375;28;92417;-70
2022/05/23 14:07:39;;;;;;;20.73;10.95;;;;;;;;;;4995478;28;93274;-70
2022/05/23 14:10:10;;;;;;;25.65;11.48;;;;;;;;;;5012606;28;96753;-70
2022/05/23 14:12:39;;;;;;;23.10;11.90;;;;;;;;;;5014428;28;92384;-70
2022/05/23 14:15:10;;;;;;;21.35;12.00;;;;;;;;;;5013847;28;93345;-71
2022/05/23 14:17:41;;;;;;;18.35;10.60;;;;;;;;;;5013145;28;94017;-69
2022/05/23 14:20:20;;;;;;;21.80;10.90;;;;;;;;;;5016494;28;92449;-69
2022/05/23 14:23:06;;;;;;;19.92;10.57;;;;;;;;;;4994449;28;93650;-69
2022/05/23 14:25:34;;;;;;;20.52;9.10;;;;;;;;;;4994053;28;92616;-69
2022/05/23 14:28:06;;;;;;;14.50;9.63;;;;;;;;;;5014803;28;93376;-69
2022/05/23 14:30:37;;;;;;;22.15;9.10;;;;;;;;;;5014628;28;93481;-69
2022/05/23 14:33:06;;;;;;;;;;;;;;;;;;5011868;28;92596;-69
2022/05/23 14:35:35;;;;;;;21.23;10.38;;;;;;;;;;5012998;28;123281;-69
2022/05/23 14:38:01;;;;;;;19.42;10.50;;;;;;;;;;5005152;28;94804;-69
2022/05/23 14:40:39;;;;;;;16.52;10.60;;;;;;;;;;4994442;28;93101;-69
2022/05/23 14:43:07;;;;;;;19.65;11.57;;;;;;;;;;5014741;28;93385;-69
2022/05/23 14:45:34;;;;;;;19.25;11.18;;;;;;;;;;4992374;28;92503;-69
2022/05/23 14:48:06;;;;;;;24.90;11.57;;;;;;;;;;4971996;28;94181;-70
2022/05/23 14:50:35;;;;;;;21.02;12.10;;;;;;;;;;5009157;28;93952;-70
2022/05/23 14:55:47;;;;;;;24.13;12.60;;;;;;;;;;5006107;28;92542;-69
2022/05/23 15:00:59;;;;;;;24.65;11.80;;;;;;;;;;5007988;28;95738;-70
2022/05/23 15:03:28;;;;;;;22.77;12.57;;;;;;;;;;5012959;28;95598;-69
2022/05/23 15:05:55;;;;;;;24.50;13.05;;;;;;;;;;5011813;28;93348;-70
2022/05/23 15:08:22;;;;;;;23.20;12.68;;;;;;;;;;5012670;28;93297;-70
2022/05/23 15:10:51;;;;;;;21.65;11.93;;;;;;;;;;5013285;28;93769;-70
2022/05/23 15:13:17;;;;;;;23.42;12.32;;;;;;;;;;5011374;28;92480;-70
2022/05/23 15:15:44;;;;;;;24.35;13.05;;;;;;;;;;5012102;28;93268;-70
2022/05/23 15:18:12;;;;;;;20.35;12.95;;;;;;;;;;4991310;28;94691;-70
2022/05/23 15:20:40;;;;;;;20.23;12.80;;;;;;;;;;5011440;28;92475;-70
2022/05/23 15:23:06;;;;;;;22.90;13.07;;;;;;;;;;5013604;28;93501;-70
2022/05/23 15:25:32;;;;;;;18.20;11.70;;;;;;;;;;5011050;28;96987;-71
2022/05/23 15:27:59;;;;;;;24.08;13.88;;;;;;;;;;5016573;28;92546;-70
2022/05/23 15:30:28;;;;;;;30.42;13.75;;;;;;;;;;5013105;28;93577;-71
2022/05/23 15:32:54;;;;;;;23.30;12.57;;;;;;;;;;5012415;28;92476;-71
2022/05/23 15:35:21;;;;;;;22.20;14.93;;;;;;;;;;5013339;28;93061;-70
2022/05/23 15:37:47;;;;;;;18.85;14.05;;;;;;;;;;5012504;28;93743;-71
2022/05/23 15:40:14;;;;;;;25.50;15.13;;;;;;;;;;5011656;28;92440;-69
2022/05/23 15:42:43;;;;;;;25.55;14.65;;;;;;;;;;5015377;28;93010;-69
2022/05/23 15:45:12;;;;;;;24.90;15.93;;;;;;;;;;5016514;28;93427;-69
2022/05/23 15:47:39;;;;;;;25.10;16.80;;;;;;;;;;5012778;28;92576;-69
2022/05/23 15:50:06;;;;;;;26.20;16.92;;;;;;;;;;5010864;28;95605;-69
2022/05/23 15:52:33;;;;;;;24.77;17.25;;;;;;;;;;4995461;28;92488;-69
2022/05/23 15:54:59;;;;;;;29.13;17.33;;;;;;;;;;5009713;28;93358;-69